Time;durP1;ratioP1;P1;durP2;ratioP2;P2;SDS_P1;SDS_P2;PMS_P1;PMS_P2;Temp;Humidity;BMP_temperature;BMP_pressure;BME280_temperature;BME280_humidity;BME280_pressure;Samples;Min_cycle;Max_cycle;Signal;HPM_P1;HPM_P2
2023/12/02 00:01:31;;;;;;;73.40;42.70;;;;;;;-0.49;76.53;97912.06;105415;1256;96613;-69
2023/12/02 00:03:57;;;;;;;71.20;39.50;;;;;;;-0.48;76.47;97910.79;108528;1250;96431;-68
2023/12/02 00:06:24;;;;;;;69.00;40.10;;;;;;;-0.45;76.44;97898.85;105792;1254;107244;-69
2023/12/02 00:08:50;;;;;;;68.40;39.70;;;;;;;-0.47;76.58;97884.46;105636;1251;97215;-67
2023/12/02 00:11:17;;;;;;;71.80;40.70;;;;;;;-0.48;76.29;97885.90;105714;1254;96663;-67
2023/12/02 00:13:44;;;;;;;70.80;40.30;;;;;;;-0.50;76.50;97891.20;105605;1251;96655;-68
2023/12/02 00:16:10;;;;;;;68.90;39.10;;;;;;;-0.51;76.60;97894.24;105581;1264;96558;-68
2023/12/02 00:18:36;;;;;;;65.40;38.10;;;;;;;-0.54;76.46;97891.07;105706;1256;96603;-68
2023/12/02 00:21:03;;;;;;;66.00;38.20;;;;;;;-0.55;76.31;97889.35;106086;1254;96523;-68
2023/12/02 00:23:30;;;;;;;62.80;37.00;;;;;;;-0.57;76.54;97882.83;105560;1254;97669;-69
2023/12/02 00:25:56;;;;;;;70.80;39.00;;;;;;;-0.59;76.65;97861.49;106001;1257;96591;-69
2023/12/02 00:28:23;;;;;;;67.50;38.30;;;;;;;-0.62;76.71;97845.98;105557;1254;96858;-69
2023/12/02 00:30:49;;;;;;;67.80;39.30;;;;;;;-0.65;76.58;97863.85;105769;1254;96594;-67
2023/12/02 00:33:16;;;;;;;66.00;36.80;;;;;;;-0.63;76.58;97882.77;105887;1251;96727;-68
2023/12/02 00:35:42;;;;;;;67.30;37.20;;;;;;;-0.63;76.82;97889.37;105645;1252;96716;-69
2023/12/02 00:38:09;;;;;;;61.10;33.20;;;;;;;-0.67;76.56;97884.34;106121;1254;97919;-69
2023/12/02 00:40:35;;;;;;;64.60;34.20;;;;;;;-0.68;76.52;97881.59;106711;1250;96609;-68
2023/12/02 00:43:01;;;;;;;56.20;31.70;;;;;;;-0.69;76.40;97873.65;105924;1254;97600;-69
2023/12/02 00:45:28;;;;;;;60.90;33.70;;;;;;;-0.74;76.48;97872.44;105556;1254;96607;-67
2023/12/02 00:47:54;;;;;;;55.20;32.40;;;;;;;-0.78;76.42;97868.60;106116;1256;97915;-70
2023/12/02 00:50:21;;;;;;;60.40;32.40;;;;;;;-0.79;76.60;97865.88;107586;1251;96597;-68
2023/12/02 00:52:47;;;;;;;58.40;33.20;;;;;;;-0.79;76.74;97862.23;105659;1254;97843;-69
2023/12/02 00:55:14;;;;;;;59.90;31.30;;;;;;;-0.79;76.47;97850.02;105795;1254;96605;-70
2023/12/02 00:57:41;;;;;;;62.50;32.70;;;;;;;-0.82;76.54;97855.61;106330;1253;96632;-69
2023/12/02 01:00:08;;;;;;;58.50;30.90;;;;;;;-0.84;76.42;97872.58;105749;1251;96611;-68
2023/12/02 01:02:35;;;;;;;54.50;30.20;;;;;;;-0.85;76.62;97872.26;107294;1251;110482;-70
2023/12/02 01:05:02;;;;;;;56.50;32.00;;;;;;;-0.86;76.65;97871.27;105566;1260;97025;-70
2023/12/02 01:07:29;;;;;;;53.50;29.30;;;;;;;-0.87;76.51;97870.12;106230;1254;97922;-70
2023/12/02 01:09:55;;;;;;;56.60;31.10;;;;;;;-0.89;76.47;97879.94;105507;1251;96511;-69
2023/12/02 01:12:22;;;;;;;56.40;32.60;;;;;;;-0.90;76.72;97879.95;106323;1254;96609;-69
2023/12/02 01:14:48;;;;;;;54.10;28.90;;;;;;;-0.89;76.75;97874.70;105638;1251;96603;-69
2023/12/02 01:17:15;;;;;;;51.50;27.40;;;;;;;-0.91;76.61;97868.17;106074;1251;107246;-68
2023/12/02 01:19:43;;;;;;;50.80;29.90;;;;;;;-0.91;76.89;97870.96;105684;1251;96638;-67
2023/12/02 01:22:10;;;;;;;52.60;27.90;;;;;;;-0.90;77.10;97875.28;106963;1251;96580;-69
2023/12/02 01:24:36;;;;;;;52.50;28.40;;;;;;;-0.91;76.81;97873.42;105813;1254;96517;-69
2023/12/02 01:27:03;;;;;;;51.90;27.70;;;;;;;-0.91;76.86;97873.93;105770;1256;96707;-67
2023/12/02 01:29:29;;;;;;;52.60;28.50;;;;;;;-0.92;76.81;97871.54;105896;1254;96680;-69
2023/12/02 01:31:56;;;;;;;51.10;27.40;;;;;;;-0.92;76.66;97874.30;105527;1251;96620;-69
2023/12/02 01:34:22;;;;;;;52.20;27.50;;;;;;;-0.91;76.83;97875.66;105804;1254;109328;-69
2023/12/02 01:36:49;;;;;;;51.50;28.00;;;;;;;-0.92;76.79;97879.88;105913;1254;97951;-69
2023/12/02 01:39:15;;;;;;;53.50;28.70;;;;;;;-0.91;76.81;97877.76;105987;1253;96590;-68
2023/12/02 01:41:42;;;;;;;49.60;28.10;;;;;;;-0.91;76.82;97872.83;106972;1251;96670;-69
2023/12/02 01:44:11;;;;;;;52.60;27.70;;;;;;;-0.90;76.77;97876.13;105505;1251;109756;-69
2023/12/02 01:46:38;;;;;;;48.10;26.60;;;;;;;-0.92;76.70;97874.30;105759;1256;97817;-68
2023/12/02 01:49:07;;;;;;;51.30;28.80;;;;;;;-0.94;76.87;97867.79;105459;1257;96612;-69
2023/12/02 01:51:35;;;;;;;55.60;30.60;;;;;;;-0.94;76.82;97853.87;105847;1254;96684;-68
2023/12/02 01:54:03;;;;;;;51.00;27.90;;;;;;;-0.95;76.91;97842.42;108810;1250;94265;-68
2023/12/02 01:56:29;;;;;;;48.40;27.00;;;;;;;-0.96;77.04;97844.74;108855;1250;94757;-69
2023/12/02 01:58:57;;;;;;;53.00;29.20;;;;;;;-0.96;76.79;97850.30;108780;1251;94509;-69
2023/12/02 02:01:23;;;;;;;50.70;28.00;;;;;;;-0.98;77.02;97848.30;108454;1251;97195;-68
2023/12/02 02:03:51;;;;;;;55.20;29.80;;;;;;;-1.01;76.77;97835.92;106169;1250;96597;-68
2023/12/02 02:06:17;;;;;;;51.80;29.20;;;;;;;-1.01;76.97;97826.49;106150;1251;96591;-68
2023/12/02 02:08:44;;;;;;;53.90;28.50;;;;;;;-1.01;76.71;97820.08;105499;1252;96548;-69
2023/12/02 02:11:11;;;;;;;52.30;29.30;;;;;;;-1.05;76.91;97813.45;105752;1254;96605;-70
2023/12/02 02:13:37;;;;;;;46.30;27.50;;;;;;;-1.06;76.77;97816.82;105689;1251;96698;-68
2023/12/02 02:16:04;;;;;;;56.60;30.50;;;;;;;-1.09;77.16;97816.09;106381;1252;96997;-69
2023/12/02 02:18:30;;;;;;;54.40;28.50;;;;;;;-1.12;77.02;97816.21;105703;1251;97159;-69
2023/12/02 02:21:00;;;;;;;59.10;31.20;;;;;;;-1.14;76.81;97818.77;108698;1250;95896;-68
2023/12/02 02:23:26;;;;;;;55.20;30.50;;;;;;;-1.17;76.66;97807.94;106389;1251;97080;-68
2023/12/02 02:25:53;;;;;;;53.40;28.60;;;;;;;-1.21;77.17;97799.19;105431;1254;96648;-69
2023/12/02 02:28:21;;;;;;;54.30;29.40;;;;;;;-1.23;76.99;97801.90;107324;1250;96636;-67
2023/12/02 02:30:48;;;;;;;56.10;31.60;;;;;;;-1.23;77.07;97814.47;106076;1254;97481;-69
2023/12/02 02:33:16;;;;;;;56.00;30.70;;;;;;;-1.24;77.09;97815.38;105824;1256;96625;-68
2023/12/02 02:35:45;;;;;;;58.40;30.90;;;;;;;-1.24;77.08;97815.19;106353;1254;96678;-68
2023/12/02 02:38:12;;;;;;;54.20;30.50;;;;;;;-1.24;77.14;97817.63;106331;1251;96618;-68
2023/12/02 02:40:39;;;;;;;54.80;29.20;;;;;;;-1.25;77.36;97820.80;105831;1254;97649;-68
2023/12/02 02:43:05;;;;;;;54.90;29.80;;;;;;;-1.24;77.42;97817.99;105804;1253;96570;-68
2023/12/02 02:45:32;;;;;;;56.60;30.20;;;;;;;-1.23;77.18;97808.52;105747;1254;96619;-68
2023/12/02 02:47:59;;;;;;;57.70;31.40;;;;;;;-1.22;77.27;97794.90;105820;1256;96651;-68
2023/12/02 02:50:26;;;;;;;56.20;30.20;;;;;;;-1.23;77.25;97796.69;105967;1254;96612;-67
2023/12/02 02:52:52;;;;;;;57.40;29.40;;;;;;;-1.22;77.25;97791.10;105889;1251;96562;-68
2023/12/02 02:55:18;;;;;;;59.00;32.40;;;;;;;-1.23;77.26;97785.55;105225;1266;97977;-67
2023/12/02 02:57:45;;;;;;;56.70;30.80;;;;;;;-1.22;77.25;97784.84;108066;1253;96517;-69
2023/12/02 03:00:12;;;;;;;55.60;31.50;;;;;;;-1.24;76.99;97783.01;105323;1251;96622;-68
2023/12/02 03:02:39;;;;;;;56.70;30.60;;;;;;;-1.23;77.42;97781.23;105661;1251;97514;-68
2023/12/02 03:05:06;;;;;;;57.40;32.90;;;;;;;-1.23;77.41;97769.58;105800;1254;96577;-68
2023/12/02 03:07:33;;;;;;;57.30;34.00;;;;;;;-1.24;77.43;97757.61;106276;1254;96629;-67
2023/12/02 03:10:00;;;;;;;59.20;31.30;;;;;;;-1.25;77.69;97762.86;105657;1255;96666;-67
2023/12/02 03:12:27;;;;;;;59.40;32.40;;;;;;;-1.25;77.49;97775.77;105981;1252;96618;-67
2023/12/02 03:14:54;;;;;;;58.60;30.70;;;;;;;-1.24;77.48;97780.04;105804;1251;97345;-67
2023/12/02 03:17:21;;;;;;;60.10;33.00;;;;;;;-1.24;77.56;97775.88;105440;1257;96586;-67
2023/12/02 03:19:48;;;;;;;64.20;32.60;;;;;;;-1.22;77.53;97772.15;106047;1251;96590;-68
2023/12/02 03:22:15;;;;;;;58.30;32.60;;;;;;;-1.22;77.29;97768.46;106014;1254;109887;-68
2023/12/02 03:24:41;;;;;;;61.60;32.60;;;;;;;-1.23;77.33;97765.96;105462;1258;96591;-68
2023/12/02 03:27:08;;;;;;;62.30;34.80;;;;;;;-1.25;77.58;97766.73;106692;1253;96591;-69
2023/12/02 03:29:34;;;;;;;57.60;32.30;;;;;;;-1.26;77.39;97773.87;105973;1251;96612;-67
2023/12/02 03:32:01;;;;;;;61.10;32.80;;;;;;;-1.27;77.17;97766.83;105281;1263;96613;-67
2023/12/02 03:34:27;;;;;;;58.90;32.10;;;;;;;-1.28;77.44;97758.48;106272;1253;96657;-68
2023/12/02 03:36:53;;;;;;;57.50;32.60;;;;;;;-1.28;77.48;97749.46;105173;1251;96625;-68
2023/12/02 03:39:20;;;;;;;61.70;35.10;;;;;;;-1.30;77.40;97734.91;105242;1264;96621;-69
2023/12/02 03:41:46;;;;;;;58.90;31.80;;;;;;;-1.30;77.50;97733.19;105756;1250;96683;-68
2023/12/02 03:44:13;;;;;;;65.70;35.90;;;;;;;-1.30;77.77;97740.30;105700;1254;96615;-67
2023/12/02 03:46:39;;;;;;;69.00;37.10;;;;;;;-1.31;77.88;97742.98;106453;1251;96593;-68
2023/12/02 03:49:05;;;;;;;62.50;35.00;;;;;;;-1.30;77.72;97748.34;106508;1250;96535;-68
2023/12/02 03:51:32;;;;;;;63.20;35.00;;;;;;;-1.28;77.88;97761.61;105312;1266;96654;-68
2023/12/02 03:53:59;;;;;;;62.20;32.80;;;;;;;-1.25;77.57;97762.89;105759;1254;96591;-67
2023/12/02 03:56:25;;;;;;;71.20;35.70;;;;;;;-1.22;77.79;97761.89;105694;1251;98086;-68
2023/12/02 03:58:51;;;;;;;60.20;36.30;;;;;;;-1.24;77.49;97764.21;105683;1253;96606;-68
2023/12/02 04:01:18;;;;;;;56.30;30.60;;;;;;;-1.24;77.69;97764.21;105841;1256;96590;-67
2023/12/02 04:03:46;;;;;;;60.40;34.70;;;;;;;-1.24;77.61;97766.67;105640;1251;96626;-68
2023/12/02 04:06:13;;;;;;;61.60;33.00;;;;;;;-1.23;77.67;97767.63;105558;1251;108386;-68
2023/12/02 04:08:40;;;;;;;63.30;36.00;;;;;;;-1.20;77.79;97767.00;107743;1253;96525;-67
2023/12/02 04:11:08;;;;;;;61.90;35.60;;;;;;;-1.20;77.79;97757.95;105630;1256;96669;-68
2023/12/02 04:13:35;;;;;;;59.90;31.70;;;;;;;-1.21;77.71;97754.84;105917;1254;107706;-66
2023/12/02 04:16:02;;;;;;;60.80;33.90;;;;;;;-1.19;77.58;97750.95;105904;1253;97231;-69
2023/12/02 04:21:15;;;;;;;62.00;33.30;;;;;;;-1.17;77.64;97750.84;106010;1253;97534;-68
2023/12/02 04:23:41;;;;;;;59.10;32.10;;;;;;;-1.16;77.99;97751.88;106882;1250;96625;-68
2023/12/02 04:26:08;;;;;;;60.90;32.40;;;;;;;-1.16;77.73;97749.77;105523;1254;97524;-69
2023/12/02 04:28:35;;;;;;;64.80;34.70;;;;;;;-1.16;77.72;97747.17;105996;1250;96619;-68
2023/12/02 04:31:02;;;;;;;58.70;31.10;;;;;;;-1.14;77.99;97746.20;105473;1255;97013;-68
2023/12/02 04:33:28;;;;;;;58.90;32.10;;;;;;;-1.11;77.96;97753.55;107556;1250;96661;-69
2023/12/02 04:35:55;;;;;;;60.70;33.30;;;;;;;-1.11;77.84;97754.92;106096;1253;96606;-66
2023/12/02 04:38:21;;;;;;;61.70;33.30;;;;;;;-1.11;77.94;97760.32;108668;1250;95798;-69
2023/12/02 04:40:48;;;;;;;54.10;29.50;;;;;;;-1.09;77.92;97759.55;108769;1251;94588;-68
2023/12/02 04:43:15;;;;;;;55.00;30.00;;;;;;;-1.05;78.04;97765.11;108809;1250;95356;-69
2023/12/02 04:45:41;;;;;;;54.40;29.20;;;;;;;-1.01;78.15;97761.97;108800;1251;94370;-69
2023/12/02 04:48:07;;;;;;;55.10;31.60;;;;;;;-0.99;78.03;97759.95;108877;1251;94355;-69
2023/12/02 04:50:34;;;;;;;54.30;29.90;;;;;;;-0.98;77.75;97764.95;108720;1251;106025;-68
2023/12/02 04:53:00;;;;;;;53.00;28.60;;;;;;;-0.95;77.85;97762.92;105913;1254;97833;-68
2023/12/02 04:55:26;;;;;;;54.00;29.80;;;;;;;-0.93;78.05;97751.49;105580;1254;97079;-68
2023/12/02 04:57:53;;;;;;;59.80;33.00;;;;;;;-0.93;77.97;97738.45;105967;1255;97556;-70
2023/12/02 05:00:21;;;;;;;64.20;34.00;;;;;;;-0.94;77.95;97735.90;105280;1255;107136;-70
2023/12/02 05:02:47;;;;;;;61.60;34.10;;;;;;;-0.98;78.17;97738.66;105430;1255;96578;-68
2023/12/02 05:05:14;;;;;;;62.20;33.90;;;;;;;-0.99;78.01;97736.09;106307;1254;96548;-70
2023/12/02 05:07:41;;;;;;;59.90;32.30;;;;;;;-0.98;77.91;97738.15;105562;1250;98018;-69
2023/12/02 05:10:07;;;;;;;59.90;34.20;;;;;;;-0.97;78.11;97740.55;105761;1251;97451;-69
2023/12/02 05:12:34;;;;;;;56.40;32.10;;;;;;;-0.98;78.21;97724.08;105651;1254;97409;-69
2023/12/02 05:15:01;;;;;;;62.10;34.30;;;;;;;-0.97;78.10;97722.98;107654;1253;97581;-70
2023/12/02 05:17:27;;;;;;;61.60;32.20;;;;;;;-0.99;78.13;97731.75;106671;1251;96603;-69
2023/12/02 05:19:54;;;;;;;60.40;32.20;;;;;;;-0.98;78.03;97744.42;106295;1250;96610;-69
2023/12/02 05:22:21;;;;;;;56.70;30.00;;;;;;;-0.99;78.07;97748.27;106975;1253;96631;-68
2023/12/02 05:24:48;;;;;;;54.20;30.00;;;;;;;-0.99;78.16;97748.81;105483;1254;97448;-68
2023/12/02 05:27:15;;;;;;;52.80;28.40;;;;;;;-1.00;78.17;97753.02;106065;1251;97868;-68
2023/12/02 05:29:41;;;;;;;56.70;30.90;;;;;;;-1.01;78.23;97761.24;105873;1257;97450;-69
2023/12/02 05:32:07;;;;;;;52.00;29.90;;;;;;;-1.02;78.17;97766.04;105911;1253;97665;-69
2023/12/02 05:34:34;;;;;;;53.80;28.60;;;;;;;-1.02;78.06;97767.23;105562;1251;96689;-69
2023/12/02 05:37:00;;;;;;;54.90;31.70;;;;;;;-1.02;78.07;97760.30;105916;1256;97585;-69
2023/12/02 05:39:27;;;;;;;53.80;28.70;;;;;;;-1.05;78.29;97758.12;105982;1254;97821;-68
2023/12/02 05:41:53;;;;;;;54.10;28.20;;;;;;;-1.06;78.27;97751.75;105954;1254;97529;-66
2023/12/02 05:44:20;;;;;;;54.00;29.50;;;;;;;-1.07;78.20;97746.92;106010;1251;96683;-69
2023/12/02 05:46:46;;;;;;;52.40;27.80;;;;;;;-1.09;78.19;97743.33;106100;1251;96593;-69
2023/12/02 05:49:13;;;;;;;52.40;28.90;;;;;;;-1.10;77.99;97737.64;106160;1254;96592;-68
2023/12/02 05:51:39;;;;;;;50.80;27.50;;;;;;;-1.11;78.11;97729.51;106909;1251;97233;-69
2023/12/02 05:54:10;;;;;;;54.10;28.80;;;;;;;-1.12;78.37;97724.38;107375;1250;97891;-68
2023/12/02 05:56:36;;;;;;;52.00;27.50;;;;;;;-1.13;78.52;97720.91;105903;1250;96611;-67
2023/12/02 05:59:04;;;;;;;48.40;26.20;;;;;;;-1.13;78.20;97716.77;105594;1264;97582;-69
2023/12/02 06:01:30;;;;;;;49.20;26.10;;;;;;;-1.13;78.15;97722.52;105847;1254;97534;-68
2023/12/02 06:03:57;;;;;;;46.80;25.50;;;;;;;-1.15;78.66;97729.02;105908;1254;96616;-67
2023/12/02 06:06:24;;;;;;;49.50;25.30;;;;;;;-1.15;78.58;97729.53;108745;1250;94328;-68
2023/12/02 06:08:50;;;;;;;49.90;27.50;;;;;;;-1.17;78.37;97732.95;106886;1250;97547;-68
2023/12/02 06:11:17;;;;;;;53.80;27.60;;;;;;;-1.18;78.38;97733.88;106077;1255;97449;-68
2023/12/02 06:13:43;;;;;;;47.80;24.00;;;;;;;-1.21;78.23;97732.06;105896;1255;96677;-68
2023/12/02 06:16:10;;;;;;;47.70;24.90;;;;;;;-1.21;78.31;97725.64;106104;1251;96685;-68
2023/12/02 06:18:36;;;;;;;45.50;23.70;;;;;;;-1.22;78.39;97726.17;105734;1255;96599;-70
2023/12/02 06:21:03;;;;;;;47.80;24.50;;;;;;;-1.21;78.44;97722.17;105432;1257;97833;-68
2023/12/02 06:23:30;;;;;;;45.90;24.20;;;;;;;-1.22;78.53;97724.46;105940;1252;105810;-68
2023/12/02 06:25:56;;;;;;;42.00;22.70;;;;;;;-1.23;78.34;97717.75;108658;1252;94355;-68
2023/12/02 06:28:22;;;;;;;47.30;24.30;;;;;;;-1.24;78.51;97723.00;108303;1250;94587;-69
2023/12/02 06:30:49;;;;;;;41.20;22.40;;;;;;;-1.25;78.46;97727.04;106854;1255;96580;-68
2023/12/02 06:33:15;;;;;;;44.40;22.60;;;;;;;-1.28;78.32;97723.34;106305;1251;107041;-69
2023/12/02 06:35:42;;;;;;;42.20;21.50;;;;;;;-1.28;78.35;97722.66;105895;1254;96672;-68
2023/12/02 06:38:09;;;;;;;43.20;23.00;;;;;;;-1.28;78.23;97722.14;106075;1255;96658;-69
2023/12/02 06:40:35;;;;;;;46.40;24.90;;;;;;;-1.29;78.48;97721.15;106144;1250;97209;-68
2023/12/02 06:43:01;;;;;;;43.60;23.30;;;;;;;-1.31;78.57;97716.16;106042;1254;96653;-69
2023/12/02 06:45:28;;;;;;;41.60;21.80;;;;;;;-1.30;78.55;97715.10;106132;1251;96603;-69
2023/12/02 06:47:54;;;;;;;39.50;20.10;;;;;;;-1.30;78.60;97716.66;105539;1254;97645;-69
2023/12/02 06:50:22;;;;;;;42.60;21.90;;;;;;;-1.28;78.49;97719.73;106122;1253;97527;-69
2023/12/02 06:52:50;;;;;;;40.20;19.40;;;;;;;-1.28;78.55;97723.89;106128;1255;96654;-70
2023/12/02 06:55:17;;;;;;;39.80;20.50;;;;;;;-1.28;78.59;97718.84;105689;1252;97540;-70
2023/12/02 06:57:46;;;;;;;40.20;20.70;;;;;;;-1.27;78.67;97717.59;106149;1251;96603;-68
2023/12/02 07:00:13;;;;;;;38.30;20.00;;;;;;;-1.27;78.60;97718.95;105285;1258;96603;-68
2023/12/02 07:02:41;;;;;;;42.10;20.60;;;;;;;-1.27;78.39;97719.45;105563;1254;96655;-73
2023/12/02 07:05:08;;;;;;;40.70;20.80;;;;;;;-1.23;78.58;97714.45;105762;1257;98000;-72
2023/12/02 07:07:37;;;;;;;41.50;21.70;;;;;;;-1.20;78.76;97711.86;105947;1250;109355;-74
2023/12/02 07:10:03;;;;;;;41.20;20.70;;;;;;;-1.18;78.46;97708.61;105590;1251;97369;-75
2023/12/02 07:12:30;;;;;;;40.80;20.90;;;;;;;-1.16;78.69;97713.58;107554;1253;96665;-73
2023/12/02 07:14:56;;;;;;;40.60;21.00;;;;;;;-1.16;78.58;97708.00;106232;1255;96517;-73
2023/12/02 07:17:23;;;;;;;40.60;20.70;;;;;;;-1.15;78.63;97700.84;107024;1253;96529;-74
2023/12/02 07:19:49;;;;;;;36.30;18.20;;;;;;;-1.14;78.73;97698.33;105521;1253;97649;-75
2023/12/02 07:22:16;;;;;;;39.30;20.10;;;;;;;-1.11;78.54;97706.05;106197;1254;96606;-72
2023/12/02 07:24:42;;;;;;;38.80;20.40;;;;;;;-1.11;78.62;97704.96;105619;1254;96629;-74
2023/12/02 07:27:08;;;;;;;36.20;19.50;;;;;;;-1.09;78.68;97702.30;105717;1251;96590;-74
2023/12/02 07:29:35;;;;;;;37.40;18.70;;;;;;;-1.08;78.54;97697.04;105636;1257;96593;-74
2023/12/02 07:32:08;;;;;;;37.50;18.60;;;;;;;-1.08;78.70;97696.00;106066;1253;96542;-72
2023/12/02 07:34:35;;;;;;;37.40;18.80;;;;;;;-1.09;78.51;97686.29;105178;1273;110001;-70
2023/12/02 07:37:02;;;;;;;37.20;19.00;;;;;;;-1.09;78.66;97676.35;105670;1255;97058;-72
2023/12/02 07:39:29;;;;;;;37.60;19.10;;;;;;;-1.07;78.47;97680.44;105868;1252;96693;-73
2023/12/02 07:41:55;;;;;;;39.80;19.00;;;;;;;-1.06;78.69;97676.40;106620;1251;96625;-74
2023/12/02 07:44:22;;;;;;;39.10;20.20;;;;;;;-1.04;78.98;97674.57;106499;1255;97958;-76
2023/12/02 07:46:48;;;;;;;39.90;19.00;;;;;;;-1.03;78.86;97663.39;105588;1251;96658;-73
2023/12/02 07:49:15;;;;;;;38.70;19.20;;;;;;;-1.04;78.54;97658.57;105645;1255;96683;-73
2023/12/02 07:51:41;;;;;;;36.40;19.30;;;;;;;-1.04;78.91;97663.29;105769;1251;97909;-73
2023/12/02 07:54:08;;;;;;;39.60;19.50;;;;;;;-1.04;78.95;97660.67;105522;1251;96662;-74
2023/12/02 07:56:36;;;;;;;38.60;19.60;;;;;;;-1.03;78.99;97661.65;106071;1254;96691;-72
2023/12/02 07:59:03;;;;;;;42.90;21.30;;;;;;;-1.00;78.79;97660.48;106667;1254;107774;-75
2023/12/02 08:01:30;;;;;;;43.10;21.00;;;;;;;-1.00;78.84;97661.17;106336;1255;96616;-73
2023/12/02 08:03:57;;;;;;;40.90;20.70;;;;;;;-0.99;78.77;97660.77;107010;1250;96589;-74
2023/12/02 08:06:23;;;;;;;40.30;21.10;;;;;;;-0.97;78.86;97661.20;106391;1250;96683;-73
2023/12/02 08:08:53;;;;;;;40.40;19.70;;;;;;;-0.97;78.73;97661.52;105725;1253;96647;-69
2023/12/02 08:11:20;;;;;;;37.40;19.60;;;;;;;-0.96;78.91;97665.47;105940;1251;108820;-71
2023/12/02 08:13:46;;;;;;;37.30;19.90;;;;;;;-0.95;78.91;97669.29;105313;1257;96692;-70
2023/12/02 08:16:13;;;;;;;36.50;19.80;;;;;;;-0.95;79.16;97672.38;106552;1254;96674;-71
2023/12/02 08:18:39;;;;;;;39.80;20.20;;;;;;;-0.94;78.87;97674.58;105689;1254;97251;-69
2023/12/02 08:21:06;;;;;;;38.90;19.10;;;;;;;-0.94;79.14;97673.23;106062;1251;107651;-73
2023/12/02 08:23:32;;;;;;;38.10;20.60;;;;;;;-0.94;79.13;97671.66;105817;1251;98008;-70
2023/12/02 08:25:59;;;;;;;36.00;19.40;;;;;;;-0.94;79.14;97676.02;105905;1251;96546;-71
2023/12/02 08:28:25;;;;;;;34.90;18.00;;;;;;;-0.93;79.29;97678.23;105673;1251;96590;-70
2023/12/02 08:30:52;;;;;;;39.00;19.10;;;;;;;-0.90;78.86;97674.78;107202;1254;96622;-74
2023/12/02 08:33:18;;;;;;;38.10;20.30;;;;;;;-0.90;79.25;97672.48;106075;1257;97544;-76
2023/12/02 08:35:45;;;;;;;35.80;19.40;;;;;;;-0.87;79.04;97667.35;105656;1254;96597;-77
2023/12/02 08:38:11;;;;;;;34.10;17.70;;;;;;;-0.84;79.11;97664.41;105670;1255;97279;-76
2023/12/02 08:40:39;;;;;;;33.90;18.00;;;;;;;-0.80;79.02;97665.08;105796;1254;96699;-74
2023/12/02 08:43:05;;;;;;;40.00;19.50;;;;;;;-0.77;79.36;97666.52;105932;1257;96583;-70
2023/12/02 08:45:32;;;;;;;41.20;20.60;;;;;;;-0.75;79.14;97668.28;108649;1250;94477;-71
2023/12/02 08:47:58;;;;;;;38.70;19.40;;;;;;;-0.72;79.10;97677.38;108779;1251;94694;-74
2023/12/02 08:50:25;;;;;;;37.00;18.70;;;;;;;-0.72;79.11;97682.95;108709;1251;94432;-73
2023/12/02 08:52:51;;;;;;;34.20;18.40;;;;;;;-0.68;79.12;97689.91;105638;1257;96610;-75
2023/12/02 08:55:19;;;;;;;33.20;17.30;;;;;;;-0.65;79.11;97691.15;106098;1256;96606;-77
2023/12/02 08:57:48;;;;;;;32.60;16.00;;;;;;;-0.63;78.97;97692.28;108520;1254;95177;-75
2023/12/02 09:00:17;;;;;;;30.80;15.10;;;;;;;-0.60;79.25;97693.84;105343;1251;97731;-77
2023/12/02 09:02:43;;;;;;;30.80;15.30;;;;;;;-0.57;79.17;97699.32;105717;1255;96612;-75
2023/12/02 09:05:10;;;;;;;30.30;15.70;;;;;;;-0.56;79.21;97705.89;105497;1256;97814;-75
2023/12/02 09:07:36;;;;;;;29.50;14.50;;;;;;;-0.55;79.27;97706.51;106104;1254;97025;-74
2023/12/02 09:10:03;;;;;;;27.30;14.20;;;;;;;-0.55;79.17;97696.06;106116;1255;96688;-79
2023/12/02 09:12:31;;;;;;;31.40;15.20;;;;;;;-0.55;79.23;97686.48;106287;1254;107302;-79
2023/12/02 09:15:26;;;;;;;32.60;14.80;;;;;;;-0.55;79.38;97683.85;106251;1253;96584;-78
2023/12/02 09:18:05;;;;;;;33.60;17.30;;;;;;;-0.52;79.15;97679.55;106005;1255;96620;-74
2023/12/02 09:20:43;;;;;;;33.20;15.90;;;;;;;-0.51;79.05;97678.77;105783;1254;107704;-77
2023/12/02 09:23:11;;;;;;;32.70;16.50;;;;;;;-0.49;79.49;97683.55;105918;1254;97639;-75
2023/12/02 09:25:40;;;;;;;35.00;17.50;;;;;;;-0.50;79.10;97680.31;105721;1256;107563;-71
2023/12/02 09:28:07;;;;;;;33.70;17.50;;;;;;;-0.52;79.13;97676.92;105719;1252;96605;-73
2023/12/02 09:30:39;;;;;;;34.50;17.60;;;;;;;-0.52;79.20;97684.08;105514;1255;96661;-77
2023/12/02 09:33:06;;;;;;;30.80;15.60;;;;;;;-0.52;79.43;97677.46;105660;1257;109877;-76
2023/12/02 09:35:33;;;;;;;32.70;17.20;;;;;;;-0.54;79.21;97675.27;105676;1255;96689;-77
2023/12/02 09:38:01;;;;;;;34.00;17.00;;;;;;;-0.55;79.47;97672.55;106211;1255;96593;-77
2023/12/02 09:40:36;;;;;;;31.30;16.00;;;;;;;-0.55;79.24;97675.15;106446;1251;96686;-77
2023/12/02 09:43:18;;;;;;;35.80;17.40;;;;;;;-0.53;79.33;97673.69;105741;1251;96577;-80
2023/12/02 09:46:15;;;;;;;;;;;;;;;;;;;;;
2023/12/02 09:49:04;;;;;;;39.70;21.20;;;;;;;-0.54;79.35;97669.70;106307;1257;96437;-80
2023/12/02 09:51:51;;;;;;;33.90;17.60;;;;;;;-0.57;79.22;97667.95;106736;1258;107603;-75
2023/12/02 09:54:52;;;;;;;37.30;21.60;;;;;;;-0.59;79.28;97671.02;105556;1254;97521;-85
2023/12/02 09:58:21;;;;;;;33.30;16.40;;;;;;;-0.60;79.35;97670.51;106007;1251;96682;-77
2023/12/02 10:00:59;;;;;;;34.90;17.50;;;;;;;-0.62;79.20;97663.69;106644;1257;109513;-81
2023/12/02 10:03:29;;;;;;;41.00;19.40;;;;;;;-0.65;79.31;97667.46;106159;1255;96757;-83
2023/12/02 10:06:20;;;;;;;38.50;19.20;;;;;;;-0.69;78.99;97661.94;106385;1255;107326;-81
2023/12/02 10:09:40;;;;;;;49.90;23.80;;;;;;;-0.74;79.05;97649.10;107271;1253;96512;-77
2023/12/02 10:12:28;;;;;;;52.20;26.40;;;;;;;-0.80;79.01;97654.62;105960;1255;96599;-82
2023/12/02 10:15:05;;;;;;;50.40;24.30;;;;;;;-0.85;79.28;97651.74;106582;1255;109839;-88
2023/12/02 10:17:55;;;;;;;40.40;20.50;;;;;;;-0.88;79.16;97646.50;106832;1259;96599;-80
2023/12/02 10:36:20;;;;;;;41.40;22.50;;;;;;;-0.48;79.01;97646.95;103388;1286;649038;-78
2023/12/02 10:39:14;;;;;;;38.40;20.10;;;;;;;-0.49;78.87;97636.56;105297;1267;171636;-84
2023/12/02 10:41:42;;;;;;;38.60;20.70;;;;;;;-0.55;79.06;97630.27;105413;1266;94251;-83
2023/12/02 10:44:13;;;;;;;40.00;20.70;;;;;;;-0.64;79.07;97616.73;105766;1257;105340;-84
2023/12/02 10:46:45;;;;;;;39.10;20.70;;;;;;;-0.72;79.25;97605.13;106501;1260;97070;-82
2023/12/02 10:49:17;;;;;;;37.10;20.30;;;;;;;-0.77;79.20;97598.23;105160;1265;106569;-83
2023/12/02 10:51:53;;;;;;;32.10;17.20;;;;;;;-0.80;79.28;97601.55;106713;1256;94210;-81
2023/12/02 10:54:36;;;;;;;40.30;20.70;;;;;;;-0.84;79.30;97605.90;105979;1254;94283;-81
2023/12/02 10:57:08;;;;;;;47.00;23.30;;;;;;;-0.88;79.41;97602.27;105496;1260;107445;-77
2023/12/02 10:59:51;;;;;;;39.40;19.80;;;;;;;-0.92;79.27;97605.27;105990;1260;95521;-76
2023/12/02 11:03:57;;;;;;;40.00;20.40;;;;;;;-0.97;79.26;97593.64;102242;1295;636074;-76
2023/12/02 11:06:35;;;;;;;39.40;20.60;;;;;;;-1.03;79.39;97591.70;104630;1272;94322;-74
2023/12/02 11:09:06;;;;;;;42.30;24.50;;;;;;;-1.05;79.39;97593.55;105216;1267;94774;-74
2023/12/02 11:12:00;;;;;;;52.90;29.60;;;;;;;-1.06;79.30;97593.22;105346;1268;107600;-83
2023/12/02 11:14:39;;;;;;;41.70;23.40;;;;;;;-1.06;79.35;97591.67;105640;1268;95382;-80
2023/12/02 11:17:27;;;;;;;39.40;20.10;;;;;;;-1.08;79.35;97593.84;105574;1261;163067;-80
2023/12/02 11:20:31;;;;;;;130.50;62.20;;;;;;;-1.11;79.39;97597.13;105450;1257;94380;-76
2023/12/02 11:23:13;;;;;;;176.90;75.10;;;;;;;-1.12;79.44;97593.71;105564;1259;94273;-74
2023/12/02 11:25:58;;;;;;;141.60;71.40;;;;;;;-1.13;79.38;97615.15;105499;1259;107258;-75
2023/12/02 11:28:39;;;;;;;67.20;35.10;;;;;;;-1.14;79.49;97615.38;105781;1259;94236;-76
2023/12/02 11:31:41;;;;;;;51.90;26.00;;;;;;;-1.15;79.64;97611.40;106041;1256;106996;-76
2023/12/02 11:34:26;;;;;;;56.50;28.30;;;;;;;-1.13;79.43;97608.35;105523;1259;95242;-75
2023/12/02 11:37:23;;;;;;;120.20;55.30;;;;;;;-1.12;79.51;97604.98;107991;1258;95241;-74
2023/12/02 11:40:24;;;;;;;63.40;32.20;;;;;;;-1.11;79.47;97599.20;108528;1257;107655;-75